Time;durP1;ratioP1;P1;durP2;ratioP2;P2;SDS_P1;SDS_P2;PMS_P1;PMS_P2;Temp;Humidity;BMP_temperature;BMP_pressure;BME280_temperature;BME280_humidity;BME280_pressure;Samples;Min_cycle;Max_cycle;Signal;HPM_P1;HPM_P2
2021/12/08 00:02:15;;;;;;;6.57;3.08;;;2.90;99.90;;;;;;5043705;28;20087;-78
2021/12/08 00:04:41;;;;;;;10.88;3.25;;;2.90;99.90;;;;;;5043858;28;20056;-81
2021/12/08 00:07:08;;;;;;;15.77;3.35;;;2.90;99.90;;;;;;5044005;28;20042;-79
2021/12/08 00:09:59;;;;;;;6.20;2.00;;;2.90;99.90;;;;;;5043788;28;20033;-75
2021/12/08 00:15:10;;;;;;;3.45;1.35;;;3.00;99.90;;;;;;5044711;28;20044;-79
2021/12/08 00:17:36;;;;;;;6.22;2.38;;;3.00;99.90;;;;;;5044865;28;20035;-75
2021/12/08 00:20:04;;;;;;;7.50;2.90;;;3.00;99.90;;;;;;5043630;28;20022;-75
2021/12/08 00:22:30;;;;;;;4.68;2.78;;;3.00;99.90;;;;;;5044879;28;20026;-73
2021/12/08 00:24:55;;;;;;;6.68;2.30;;;3.00;99.90;;;;;;5043600;28;20053;-76
2021/12/08 00:27:22;;;;;;;3.13;2.05;;;3.10;99.90;;;;;;5044979;28;20022;-77
2021/12/08 00:29:48;;;;;;;9.85;2.50;;;3.10;99.90;;;;;;5052337;28;20036;-76
2021/12/08 00:32:15;;;;;;;13.25;3.50;;;3.10;99.90;;;;;;5058361;28;20064;-77
2021/12/08 00:34:40;;;;;;;6.70;2.60;;;3.10;99.90;;;;;;5048011;28;20042;-74
2021/12/08 00:37:12;;;;;;;6.45;2.28;;;3.10;99.90;;;;;;5050864;28;20029;-75
2021/12/08 00:39:38;;;;;;;6.65;2.95;;;3.10;99.90;;;;;;5063539;28;20033;-78
2021/12/08 00:42:04;;;;;;;6.57;2.90;;;3.10;99.90;;;;;;5063485;28;20572;-74
2021/12/08 00:44:30;;;;;;;12.63;2.92;;;3.10;99.90;;;;;;5064206;28;20029;-75
2021/12/08 00:46:55;;;;;;;9.05;3.53;;;3.10;99.90;;;;;;5062686;28;20047;-74
2021/12/08 00:49:21;;;;;;;3.85;1.27;;;3.10;99.90;;;;;;5064249;28;20031;-74
2021/12/08 00:51:49;;;;;;;10.02;3.00;;;3.00;99.90;;;;;;5064949;28;20056;-73
2021/12/08 00:54:15;;;;;;;7.05;2.70;;;3.10;99.90;;;;;;5062344;28;20049;-76
2021/12/08 00:56:40;;;;;;;6.30;2.28;;;3.10;99.90;;;;;;5063913;28;20044;-77
2021/12/08 00:59:06;;;;;;;7.93;2.90;;;3.10;99.90;;;;;;5064175;28;20478;-77
2021/12/08 01:01:38;;;;;;;12.23;2.70;;;3.10;99.90;;;;;;5062734;28;20029;-77
2021/12/08 01:04:05;;;;;;;8.15;2.70;;;3.10;99.90;;;;;;5062091;28;20850;-75
2021/12/08 01:06:31;;;;;;;7.38;3.13;;;3.10;99.90;;;;;;5062379;28;20053;-75
2021/12/08 01:08:57;;;;;;;6.10;2.83;;;3.00;99.90;;;;;;5061928;28;20029;-73
2021/12/08 01:11:23;;;;;;;6.28;2.85;;;3.10;99.90;;;;;;5064083;28;20040;-73
2021/12/08 01:13:50;;;;;;;4.15;2.03;;;3.10;99.90;;;;;;5064045;28;20108;-78
2021/12/08 01:16:19;;;;;;;8.68;3.50;;;3.10;99.90;;;;;;5062745;28;20033;-73
2021/12/08 01:18:45;;;;;;;6.75;2.65;;;3.10;99.90;;;;;;5064475;28;20025;-74
2021/12/08 01:21:14;;;;;;;7.05;2.85;;;3.00;99.90;;;;;;5064358;28;20076;-77
2021/12/08 01:23:40;;;;;;;5.53;2.08;;;3.00;99.90;;;;;;5064247;28;20103;-75
2021/12/08 01:26:08;;;;;;;5.70;2.42;;;3.00;99.90;;;;;;5064322;28;20485;-73
2021/12/08 01:28:34;;;;;;;5.07;2.10;;;3.00;99.90;;;;;;5063905;28;20029;-76
2021/12/08 01:31:01;;;;;;;7.28;2.85;;;3.00;99.90;;;;;;5062549;28;20032;-75
2021/12/08 01:33:31;;;;;;;10.73;2.97;;;3.00;99.90;;;;;;5062392;28;20036;-75
2021/12/08 01:35:57;;;;;;;5.30;2.22;;;3.00;99.90;;;;;;5062555;28;20040;-75
2021/12/08 01:38:24;;;;;;;9.10;2.38;;;3.00;99.90;;;;;;5062511;28;20045;-72
2021/12/08 01:40:51;;;;;;;7.28;1.65;;;3.00;99.90;;;;;;5064413;28;20466;-76
2021/12/08 01:43:25;;;;;;;10.07;3.17;;;3.00;99.90;;;;;;5062956;28;20033;-74
2021/12/08 01:46:06;;;;;;;4.13;1.83;;;3.00;99.90;;;;;;5060739;28;20111;-78
2021/12/08 01:48:37;;;;;;;5.78;2.28;;;3.00;99.90;;;;;;5063645;28;20056;-78
2021/12/08 01:51:11;;;;;;;7.47;2.60;;;3.00;99.90;;;;;;5062477;28;20036;-77
2021/12/08 01:53:50;;;;;;;8.90;3.55;;;3.00;99.90;;;;;;5062458;28;20052;-79
2021/12/08 01:56:19;;;;;;;10.05;3.10;;;3.00;99.90;;;;;;5062606;28;20068;-76
2021/12/08 01:58:46;;;;;;;13.25;2.00;;;3.00;99.90;;;;;;5062759;28;20124;-76
2021/12/08 02:01:15;;;;;;;11.93;4.03;;;3.00;99.90;;;;;;5064206;28;20036;-74
2021/12/08 02:03:42;;;;;;;9.98;4.07;;;3.00;99.90;;;;;;5063955;28;20489;-80
2021/12/08 02:06:09;;;;;;;5.38;2.80;;;3.10;99.90;;;;;;5063902;28;20029;-76
2021/12/08 02:08:36;;;;;;;6.53;3.00;;;3.00;99.90;;;;;;5063521;28;20131;-76
2021/12/08 02:11:03;;;;;;;5.78;2.40;;;3.10;99.90;;;;;;5063851;28;20087;-74
2021/12/08 02:13:35;;;;;;;10.25;2.47;;;3.10;99.90;;;;;;5063511;28;20033;-71
2021/12/08 02:16:01;;;;;;;10.52;2.72;;;3.10;99.90;;;;;;5061620;28;20051;-74
2021/12/08 02:18:27;;;;;;;12.63;3.25;;;3.10;99.90;;;;;;5062692;28;20409;-71
2021/12/08 02:20:53;;;;;;;9.80;3.33;;;3.10;99.90;;;;;;5067102;28;20025;-75
2021/12/08 02:23:20;;;;;;;6.07;2.70;;;3.10;99.90;;;;;;5067389;28;20362;-75
2021/12/08 02:25:49;;;;;;;10.20;2.63;;;3.10;99.90;;;;;;5064428;28;20025;-77
2021/12/08 02:28:16;;;;;;;2.92;1.63;;;3.10;99.90;;;;;;5051850;28;20041;-76
2021/12/08 02:30:53;;;;;;;4.60;1.70;;;3.10;99.90;;;;;;5046434;28;20036;-76
2021/12/08 02:47:15;;;;;;;3.45;1.77;;;2.90;99.90;;;;;;5066840;28;20096;-74
2021/12/08 02:49:41;;;;;;;6.22;2.85;;;2.80;99.90;;;;;;5065142;28;20049;-78
2021/12/08 02:52:09;;;;;;;8.32;2.67;;;2.80;99.90;;;;;;5065570;28;20031;-77
2021/12/08 02:54:42;;;;;;;4.93;2.55;;;2.70;99.90;;;;;;5064322;28;20125;-72
2021/12/08 02:57:10;;;;;;;6.75;2.88;;;2.70;99.90;;;;;;5064692;28;20032;-74
2021/12/08 02:59:36;;;;;;;5.80;2.63;;;2.60;99.90;;;;;;5065173;28;20025;-72
2021/12/08 03:02:03;;;;;;;6.82;2.03;;;2.60;99.90;;;;;;5063783;28;20021;-71
2021/12/08 03:04:29;;;;;;;5.35;2.53;;;2.50;99.90;;;;;;5064665;28;20021;-72
2021/12/08 03:06:55;;;;;;;7.50;2.78;;;2.50;99.90;;;;;;5063689;28;20035;-75
2021/12/08 03:09:21;;;;;;;6.18;3.10;;;2.40;99.90;;;;;;5064374;28;20056;-73
2021/12/08 03:11:53;;;;;;;12.43;2.78;;;2.30;99.90;;;;;;5074731;28;20036;-77
2021/12/08 03:14:19;;;;;;;4.75;2.75;;;2.20;99.90;;;;;;5084567;28;20028;-76
2021/12/08 03:16:49;;;;;;;5.47;2.20;;;2.10;99.90;;;;;;5084557;28;20029;-73
2021/12/08 03:19:15;;;;;;;4.40;1.85;;;2.10;99.90;;;;;;5084910;28;20029;-75
2021/12/08 03:21:42;;;;;;;8.38;3.65;;;2.00;99.90;;;;;;5083549;28;20020;-74
2021/12/08 03:24:30;;;;;;;2.20;1.42;;;1.90;99.90;;;;;;5084607;28;20028;-71
2021/12/08 03:27:09;;;;;;;5.18;2.75;;;1.80;99.90;;;;;;5084346;28;20070;-72
2021/12/08 03:32:15;;;;;;;21.48;3.03;;;1.80;99.90;;;;;;5084729;28;20032;-74
2021/12/08 03:34:51;;;;;;;7.85;2.55;;;1.70;99.90;;;;;;5083098;28;20050;-73
2021/12/08 03:37:21;;;;;;;4.68;2.38;;;1.70;99.90;;;;;;5084373;28;20024;-73
2021/12/08 03:39:49;;;;;;;7.80;2.90;;;1.70;99.90;;;;;;5084737;28;20051;-76
2021/12/08 03:42:15;;;;;;;6.75;3.05;;;1.60;99.90;;;;;;5082647;28;20032;-75
2021/12/08 03:44:41;;;;;;;6.95;3.03;;;1.60;99.90;;;;;;5084473;28;20484;-75
2021/12/08 03:47:14;;;;;;;9.88;3.85;;;1.50;99.90;;;;;;5084022;28;20025;-75
2021/12/08 03:49:42;;;;;;;13.07;3.40;;;1.50;99.90;;;;;;5084092;28;20025;-74
2021/12/08 03:52:08;;;;;;;7.13;3.00;;;1.50;99.90;;;;;;5082555;28;20487;-77
2021/12/08 03:54:34;;;;;;;13.63;2.95;;;1.40;99.90;;;;;;5082393;28;20052;-76
2021/12/08 03:56:59;;;;;;;5.38;2.83;;;1.40;99.90;;;;;;5083624;28;20085;-76
2021/12/08 03:59:25;;;;;;;11.07;3.17;;;1.40;99.90;;;;;;5084320;28;20033;-76
2021/12/08 04:01:50;;;;;;;3.78;2.35;;;1.40;99.90;;;;;;5083505;28;20028;-78
2021/12/08 04:04:16;;;;;;;6.28;2.90;;;1.40;99.90;;;;;;5082550;28;20028;-78
2021/12/08 04:06:51;;;;;;;6.53;3.08;;;1.30;99.90;;;;;;5082606;28;20024;-75
2021/12/08 04:09:32;;;;;;;8.23;2.47;;;1.30;99.90;;;;;;5083723;28;20052;-75
2021/12/08 04:11:59;;;;;;;7.43;2.97;;;1.30;99.90;;;;;;5082425;28;20033;-75
2021/12/08 04:14:29;;;;;;;8.73;3.65;;;1.30;99.90;;;;;;5081952;28;20047;-77
2021/12/08 04:17:10;;;;;;;5.97;2.15;;;1.30;99.90;;;;;;5083369;28;20084;-78
2021/12/08 04:19:37;;;;;;;3.58;1.60;;;1.40;99.90;;;;;;5083233;28;20098;-77
2021/12/08 04:22:19;;;;;;;5.20;2.20;;;1.40;99.90;;;;;;5081844;28;20030;-80
2021/12/08 04:24:48;;;;;;;6.82;2.55;;;1.40;99.90;;;;;;5086288;28;20028;-78
2021/12/08 04:27:23;;;;;;;19.13;3.33;;;1.40;99.90;;;;;;5092871;28;20046;-77
2021/12/08 04:29:50;;;;;;;8.27;3.28;;;1.40;99.90;;;;;;5084908;28;20058;-76
2021/12/08 04:32:18;;;;;;;7.60;2.88;;;1.40;99.90;;;;;;5081792;28;20123;-77
2021/12/08 04:34:48;;;;;;;9.75;3.45;;;1.40;99.90;;;;;;5081970;28;20488;-75
2021/12/08 04:37:23;;;;;;;7.63;2.80;;;1.40;99.90;;;;;;5081422;28;20032;-75
2021/12/08 04:40:09;;;;;;;5.40;2.08;;;1.40;99.90;;;;;;5083092;28;20043;-75
2021/12/08 04:43:15;;;;;;;8.38;3.78;;;1.40;99.90;;;;;;5082563;28;20052;-73
2021/12/08 04:45:38;;;;;;;10.02;3.15;;;1.40;99.90;;;;;;5081964;28;20058;-74
2021/12/08 04:50:49;;;;;;;8.18;3.22;;;1.50;99.90;;;;;;5082977;28;20028;-77
2021/12/08 05:01:32;;;;;;;10.18;2.17;;;1.50;99.90;;;;;;5082554;28;19912;-79
2021/12/08 05:06:50;;;;;;;8.45;2.63;;;1.50;99.90;;;;;;5083088;28;20096;-79
2021/12/08 05:09:22;;;;;;;6.43;2.83;;;1.50;99.90;;;;;;5081250;28;20021;-77
2021/12/08 05:12:03;;;;;;;9.95;3.60;;;1.60;99.90;;;;;;5081586;28;20054;-79
2021/12/08 05:14:41;;;;;;;12.85;2.70;;;1.60;99.90;;;;;;5081087;28;20373;-77
2021/12/08 05:17:13;;;;;;;6.35;3.03;;;1.60;99.90;;;;;;5082495;28;20031;-77
2021/12/08 05:19:42;;;;;;;6.07;3.22;;;1.70;99.90;;;;;;5081506;28;20086;-80
2021/12/08 05:22:12;;;;;;;7.60;3.13;;;1.70;99.90;;;;;;5081854;28;20031;-77
2021/12/08 05:24:42;;;;;;;7.35;3.78;;;1.70;99.90;;;;;;5081814;28;20028;-76
2021/12/08 05:27:22;;;;;;;7.05;2.97;;;1.70;99.90;;;;;;5081666;28;20054;-77
2021/12/08 05:29:53;;;;;;;4.65;2.22;;;1.70;99.90;;;;;;5080953;28;20039;-79
2021/12/08 05:32:20;;;;;;;8.85;3.08;;;1.70;99.90;;;;;;5081258;28;20059;-75
2021/12/08 05:34:47;;;;;;;7.07;2.67;;;1.70;99.90;;;;;;5081525;28;20032;-76
2021/12/08 05:37:16;;;;;;;16.58;4.40;;;1.70;99.90;;;;;;5082281;28;20025;-80
2021/12/08 05:39:43;;;;;;;7.38;2.88;;;1.80;99.90;;;;;;5081593;28;20024;-77
2021/12/08 05:42:17;;;;;;;7.95;3.22;;;1.80;99.90;;;;;;5081647;28;20055;-76
2021/12/08 05:44:45;;;;;;;7.07;2.83;;;1.80;99.90;;;;;;5081353;28;20151;-77
2021/12/08 05:47:15;;;;;;;4.72;2.90;;;1.80;99.90;;;;;;5073418;28;20032;-75
2021/12/08 05:49:41;;;;;;;6.10;2.78;;;1.80;99.90;;;;;;5042231;28;20028;-76
2021/12/08 05:52:08;;;;;;;8.65;2.50;;;1.80;99.90;;;;;;5060313;28;20127;-77
2021/12/08 05:54:42;;;;;;;6.43;3.15;;;1.80;99.90;;;;;;5062941;28;20049;-78
2021/12/08 05:57:18;;;;;;;8.02;3.35;;;1.90;99.90;;;;;;5062881;28;20036;-78
2021/12/08 05:59:48;;;;;;;5.15;2.50;;;1.90;99.90;;;;;;5065184;28;20064;-78
2021/12/08 06:02:29;;;;;;;9.52;2.60;;;1.90;99.90;;;;;;5066733;28;20031;-78
2021/12/08 06:04:56;;;;;;;9.45;3.67;;;1.90;99.90;;;;;;5064480;28;20017;-78
2021/12/08 06:07:22;;;;;;;5.60;2.65;;;1.90;99.90;;;;;;5064670;28;20035;-77
2021/12/08 06:09:51;;;;;;;7.15;2.38;;;1.90;99.90;;;;;;5064428;28;20050;-78
2021/12/08 06:12:17;;;;;;;6.85;2.55;;;2.00;99.90;;;;;;5064566;28;20021;-75
2021/12/08 06:14:44;;;;;;;10.45;3.20;;;2.00;99.90;;;;;;5064237;28;20135;-76
2021/12/08 06:17:18;;;;;;;6.70;3.00;;;2.00;99.90;;;;;;5055690;28;20060;-75
2021/12/08 06:19:47;;;;;;;6.38;2.80;;;2.00;99.90;;;;;;5045888;28;20049;-75
2021/12/08 06:22:15;;;;;;;6.43;3.72;;;2.10;99.90;;;;;;5052629;28;20049;-75
2021/12/08 06:24:43;;;;;;;7.55;2.72;;;2.10;99.90;;;;;;5064011;28;20032;-78
2021/12/08 06:27:09;;;;;;;10.07;2.55;;;2.20;99.90;;;;;;5064130;28;20105;-78
2021/12/08 06:29:36;;;;;;;4.75;2.35;;;2.10;99.90;;;;;;5064113;28;20021;-77
2021/12/08 06:32:06;;;;;;;7.35;2.40;;;2.20;99.90;;;;;;5063521;28;20112;-76
2021/12/08 06:34:33;;;;;;;5.28;2.75;;;2.20;99.90;;;;;;5051663;28;20033;-78
2021/12/08 06:37:10;;;;;;;8.02;2.38;;;2.20;99.90;;;;;;5044198;28;20026;-74
2021/12/08 06:39:45;;;;;;;8.23;2.60;;;2.20;99.90;;;;;;5043629;28;20057;-78
2021/12/08 06:42:21;;;;;;;10.23;4.03;;;2.20;99.90;;;;;;5068233;28;20033;-78
2021/12/08 06:44:49;;;;;;;10.98;3.10;;;2.20;99.90;;;;;;5061832;28;20026;-80
2021/12/08 06:47:20;;;;;;;11.68;4.10;;;2.20;99.90;;;;;;5054567;28;20032;-79
2021/12/08 06:49:50;;;;;;;8.77;2.83;;;2.30;99.90;;;;;;5050504;28;20044;-79
2021/12/08 06:52:21;;;;;;;18.45;3.20;;;2.30;99.90;;;;;;5058053;28;20096;-77
2021/12/08 06:54:57;;;;;;;7.97;3.20;;;2.30;99.90;;;;;;5062375;28;20072;-76
2021/12/08 06:57:35;;;;;;;5.50;2.97;;;2.30;99.90;;;;;;5069122;28;20033;-76
2021/12/08 07:00:18;;;;;;;8.55;3.35;;;2.40;99.90;;;;;;5061322;28;20021;-75
2021/12/08 07:07:58;;;;;;;4.18;2.13;;;2.40;99.90;;;;;;5058770;28;20021;-74
2021/12/08 07:10:32;;;;;;;12.40;2.78;;;2.40;99.90;;;;;;5054251;28;20041;-78
2021/12/08 07:13:09;;;;;;;;;;;2.40;99.90;;;;;;5063585;28;20024;-77
2021/12/08 07:15:42;;;;;;;6.75;2.97;;;2.40;99.90;;;;;;5064734;28;19924;-79
2021/12/08 07:18:29;;;;;;;17.25;3.30;;;2.50;99.90;;;;;;5064220;28;20025;-80
2021/12/08 07:20:59;;;;;;;5.32;2.85;;;2.50;99.90;;;;;;5063915;28;20041;-77
2021/12/08 07:23:36;;;;;;;7.30;2.90;;;2.50;99.90;;;;;;5062987;28;20100;-77
2021/12/08 07:26:06;;;;;;;8.07;3.53;;;2.50;99.90;;;;;;5064249;28;20055;-77
2021/12/08 07:28:31;;;;;;;8.93;2.63;;;2.50;99.90;;;;;;5052577;28;20033;-79
2021/12/08 07:31:04;;;;;;;6.03;2.33;;;2.60;99.90;;;;;;5054018;28;20457;-77
2021/12/08 07:33:31;;;;;;;7.13;2.75;;;2.60;99.90;;;;;;5059697;28;20045;-79
2021/12/08 07:36:00;;;;;;;13.45;2.95;;;2.60;99.90;;;;;;5064176;28;20564;-78
2021/12/08 07:38:30;;;;;;;5.80;2.53;;;2.60;99.90;;;;;;5063535;28;20052;-78
2021/12/08 07:41:09;;;;;;;6.20;2.90;;;2.60;99.90;;;;;;5060738;28;20483;-78
2021/12/08 07:43:39;;;;;;;4.78;2.55;;;2.70;99.90;;;;;;5063230;28;20052;-78
2021/12/08 07:46:12;;;;;;;9.88;3.28;;;2.70;99.90;;;;;;5060655;28;21036;-79
2021/12/08 07:48:55;;;;;;;6.45;2.30;;;2.70;99.90;;;;;;5062329;28;20020;-78
2021/12/08 07:51:23;;;;;;;5.32;2.75;;;2.70;99.90;;;;;;5062153;28;20036;-79
2021/12/08 07:53:50;;;;;;;7.07;2.65;;;2.70;99.90;;;;;;5063803;28;20068;-79
2021/12/08 07:56:21;;;;;;;12.60;3.40;;;2.70;99.90;;;;;;5062633;28;20055;-77
2021/12/08 07:58:56;;;;;;;4.72;2.03;;;2.70;99.90;;;;;;5063525;28;20028;-76
2021/12/08 08:01:30;;;;;;;4.38;2.15;;;2.80;99.90;;;;;;5061815;28;20029;-77
2021/12/08 08:03:56;;;;;;;5.97;2.97;;;2.80;99.90;;;;;;5063965;28;20025;-77
2021/12/08 08:06:35;;;;;;;3.58;1.85;;;2.80;99.90;;;;;;5063483;28;20036;-77
2021/12/08 08:09:05;;;;;;;4.82;1.73;;;2.90;99.90;;;;;;5062163;28;20025;-79
2021/12/08 08:11:35;;;;;;;4.88;2.65;;;2.90;99.90;;;;;;5062110;28;20021;-76
2021/12/08 08:14:01;;;;;;;5.38;2.47;;;2.90;99.90;;;;;;5063425;28;20118;-75
2021/12/08 08:16:32;;;;;;;6.15;2.00;;;2.90;99.90;;;;;;5060696;28;20052;-76
2021/12/08 08:19:08;;;;;;;6.35;2.15;;;2.90;99.90;;;;;;5061443;28;20048;-77
2021/12/08 08:21:41;;;;;;;4.53;2.25;;;2.90;99.90;;;;;;5062327;28;20057;-76
2021/12/08 08:24:10;;;;;;;6.70;2.72;;;3.00;99.90;;;;;;5063978;28;20029;-79
2021/12/08 08:26:38;;;;;;;5.15;2.50;;;3.00;99.90;;;;;;5062350;28;20029;-76
2021/12/08 08:29:07;;;;;;;7.57;2.88;;;3.00;99.90;;;;;;5062589;28;20021;-76
2021/12/08 08:31:41;;;;;;;9.95;3.28;;;3.00;99.90;;;;;;5057502;28;20037;-78
2021/12/08 08:34:09;;;;;;;4.25;1.88;;;3.10;99.90;;;;;;5048614;28;20041;-77
2021/12/08 08:36:42;;;;;;;3.35;1.60;;;3.10;99.90;;;;;;5042736;28;20073;-77
2021/12/08 08:39:07;;;;;;;7.10;3.03;;;3.10;99.90;;;;;;5041522;28;20033;-79
2021/12/08 08:41:43;;;;;;;4.43;2.38;;;3.10;99.90;;;;;;5043144;28;20051;-76
2021/12/08 08:44:38;;;;;;;6.53;2.83;;;3.10;99.90;;;;;;5043596;28;20052;-76
2021/12/08 08:47:08;;;;;;;10.07;2.42;;;3.20;99.90;;;;;;5041071;28;20029;-74
2021/12/08 08:49:36;;;;;;;8.13;2.17;;;3.20;99.90;;;;;;5062263;28;20048;-74
2021/12/08 08:52:07;;;;;;;7.38;2.75;;;3.20;99.90;;;;;;5057157;28;20028;-77
2021/12/08 08:54:40;;;;;;;8.57;2.28;;;3.20;99.90;;;;;;5042253;28;20569;-79
2021/12/08 08:57:17;;;;;;;4.40;2.05;;;3.20;99.90;;;;;;5057163;28;20024;-78
2021/12/08 09:00:05;;;;;;;3.25;1.63;;;3.30;99.90;;;;;;5052904;28;20037;-78
2021/12/08 09:02:37;;;;;;;4.10;2.17;;;3.30;99.90;;;;;;5044647;28;20060;-76
2021/12/08 09:05:09;;;;;;;7.63;2.83;;;3.30;99.90;;;;;;5053846;28;20029;-74
2021/12/08 09:07:45;;;;;;;16.38;2.38;;;3.40;99.90;;;;;;5041397;28;20036;-78
2021/12/08 09:10:52;;;;;;;8.95;3.00;;;3.50;99.90;;;;;;5040306;28;20030;-77
2021/12/08 09:13:25;;;;;;;4.47;2.42;;;3.40;99.90;;;;;;5041247;28;20041;-77
2021/12/08 09:16:04;;;;;;;4.43;2.40;;;3.60;99.90;;;;;;5042681;28;20037;-78
2021/12/08 09:18:47;;;;;;;6.03;2.65;;;3.50;99.90;;;;;;5058049;28;20115;-75
2021/12/08 09:21:33;;;;;;;10.10;2.80;;;3.50;99.90;;;;;;5061339;28;20040;-76
2021/12/08 09:24:09;;;;;;;5.43;2.55;;;3.60;99.90;;;;;;5060281;28;20055;-75
2021/12/08 09:26:39;;;;;;;5.10;2.35;;;3.50;99.90;;;;;;5054342;28;20034;-75
2021/12/08 09:29:13;;;;;;;5.03;2.45;;;3.60;99.90;;;;;;5058150;28;20033;-74
2021/12/08 09:31:47;;;;;;;9.45;2.60;;;3.70;99.90;;;;;;5046414;28;20104;-74
2021/12/08 09:34:33;;;;;;;;;;;3.70;99.90;;;;;;5047349;28;20049;-75
2021/12/08 09:37:12;;;;;;;6.22;2.65;;;3.70;99.90;;;;;;5040465;28;19921;-78
2021/12/08 09:39:58;;;;;;;3.38;1.65;;;3.70;99.90;;;;;;5045856;28;20049;-76
2021/12/08 09:42:32;;;;;;;2.88;1.55;;;3.80;99.90;;;;;;5056417;28;20033;-75
2021/12/08 09:45:06;;;;;;;13.80;2.95;;;3.80;99.90;;;;;;5057057;28;20041;-77
2021/12/08 09:47:32;;;;;;;;;;;3.90;99.90;;;;;;5046464;28;20056;-76
2021/12/08 09:50:01;;;;;;;4.25;2.33;;;3.90;99.90;;;;;;5044128;28;20007;-76
2021/12/08 09:52:27;;;;;;;3.47;2.08;;;3.90;99.90;;;;;;5053931;28;20068;-75
2021/12/08 09:55:09;;;;;;;4.25;2.22;;;3.90;99.90;;;;;;5054003;28;20075;-75
2021/12/08 09:57:35;;;;;;;2.63;1.50;;;4.00;99.90;;;;;;5060307;28;20024;-74
2021/12/08 10:00:03;;;;;;;7.22;2.17;;;4.00;99.90;;;;;;5063372;28;20029;-75
2021/12/08 10:02:33;;;;;;;4.55;1.95;;;3.90;99.90;;;;;;5061262;28;20033;-73
2021/12/08 10:05:01;;;;;;;9.38;3.20;;;4.00;99.90;;;;;;5064557;28;20025;-72
2021/12/08 10:07:28;;;;;;;8.02;3.30;;;4.00;99.90;;;;;;5064408;28;20044;-75
2021/12/08 10:09:54;;;;;;;6.53;2.30;;;4.00;99.90;;;;;;5063816;28;20028;-74
2021/12/08 10:12:23;;;;;;;8.18;3.20;;;4.00;99.90;;;;;;5063870;28;20036;-74
2021/12/08 10:14:50;;;;;;;5.22;1.67;;;4.00;99.90;;;;;;5065211;28;20020;-75
2021/12/08 10:17:20;;;;;;;3.63;2.17;;;4.00;99.90;;;;;;5060753;28;20044;-74
2021/12/08 10:20:22;;;;;;;6.28;2.08;;;4.00;99.90;;;;;;5062779;28;20025;-74
2021/12/08 10:23:10;;;;;;;3.97;2.03;;;4.10;99.90;;;;;;5064795;28;20028;-73
2021/12/08 10:25:50;;;;;;;6.15;2.70;;;4.00;99.90;;;;;;5064809;28;20024;-73
2021/12/08 10:28:26;;;;;;;7.22;2.40;;;4.00;99.90;;;;;;5063926;28;20032;-74
2021/12/08 10:31:03;;;;;;;5.22;2.20;;;4.10;99.90;;;;;;5064778;28;20029;-74
2021/12/08 10:34:03;;;;;;;2.85;1.65;;;4.10;99.90;;;;;;5063673;28;20045;-74
2021/12/08 10:36:47;;;;;;;9.32;1.92;;;4.10;99.90;;;;;;5064229;28;20520;-75
2021/12/08 10:39:23;;;;;;;4.07;1.95;;;4.10;99.90;;;;;;5061359;28;20036;-75
2021/12/08 10:41:52;;;;;;;6.18;2.40;;;4.10;99.90;;;;;;5063910;28;20048;-74
2021/12/08 10:44:47;;;;;;;5.55;2.28;;;4.10;99.90;;;;;;5063280;28;20039;-74
2021/12/08 10:47:24;;;;;;;5.38;2.58;;;4.20;99.90;;;;;;5064423;28;20672;-72
2021/12/08 10:55:13;;;;;;;4.85;2.30;;;4.50;99.90;;;;;;5063970;28;20099;-74
2021/12/08 10:57:39;;;;;;;;;;;4.50;99.90;;;;;;5065161;28;20071;-71
2021/12/08 11:00:12;;;;;;;5.75;2.70;;;4.50;99.90;;;;;;5062907;28;19905;-74
2021/12/08 11:02:40;;;;;;;16.25;2.33;;;4.50;99.90;;;;;;5064201;28;20033;-74
2021/12/08 11:05:25;;;;;;;9.05;3.05;;;4.60;99.90;;;;;;5061094;28;20130;-74
2021/12/08 11:08:04;;;;;;;6.57;3.05;;;4.80;99.90;;;;;;5062478;28;20092;-74
2021/12/08 11:10:50;;;;;;;5.95;3.33;;;5.10;99.90;;;;;;5060430;28;20124;-74
2021/12/08 11:13:23;;;;;;;7.35;3.33;;;5.30;99.90;;;;;;5063752;28;20081;-75
2021/12/08 11:15:59;;;;;;;6.70;3.10;;;5.80;99.90;;;;;;5061758;28;20408;-73
2021/12/08 11:18:33;;;;;;;4.75;2.40;;;6.50;99.90;;;;;;5061660;28;20504;-75
2021/12/08 11:21:16;;;;;;;4.20;2.30;;;7.20;99.90;;;;;;5053768;28;20037;-74
2021/12/08 11:23:49;;;;;;;9.40;4.93;;;7.50;99.90;;;;;;5061493;28;20393;-72
2021/12/08 11:26:24;;;;;;;12.85;4.45;;;7.10;99.90;;;;;;5063601;28;20541;-74
2021/12/08 11:29:12;;;;;;;;;;;6.70;99.90;;;;;;5061651;28;20016;-76
2021/12/08 11:32:06;;;;;;;10.98;4.22;;;6.40;99.90;;;;;;5062979;28;19908;-73
2021/12/08 11:34:45;;;;;;;10.18;5.00;;;6.10;99.90;;;;;;5062307;28;20032;-72
2021/12/08 11:37:18;;;;;;;19.40;4.80;;;5.80;99.90;;;;;;5061681;28;20044;-74
2021/12/08 11:39:47;;;;;;;7.05;3.78;;;5.60;99.90;;;;;;5062520;28;20028;-74
2021/12/08 11:42:22;;;;;;;8.15;4.15;;;5.50;99.90;;;;;;5043256;28;20025;-73
2021/12/08 11:44:57;;;;;;;6.72;3.17;;;5.40;99.90;;;;;;5058273;28;20052;-75
2021/12/08 11:47:32;;;;;;;6.30;3.65;;;5.60;99.90;;;;;;5058239;28;20034;-76
2021/12/08 11:50:07;;;;;;;6.47;2.72;;;5.80;99.90;;;;;;5041712;28;20038;-73
2021/12/08 11:52:33;;;;;;;11.00;3.03;;;6.20;99.90;;;;;;5042794;28;20029;-71
2021/12/08 11:55:06;;;;;;;5.47;2.03;;;6.60;99.90;;;;;;5059955;28;20053;-72
2021/12/08 11:57:36;;;;;;;6.55;3.33;;;6.90;99.90;;;;;;5062372;28;20085;-72
2021/12/08 12:00:19;;;;;;;7.85;2.83;;;7.10;99.90;;;;;;5062696;28;20029;-71
2021/12/08 12:03:05;;;;;;;9.25;4.05;;;7.00;99.90;;;;;;5061946;28;20123;-72
2021/12/08 12:05:48;;;;;;;5.30;2.67;;;6.90;99.90;;;;;;5061381;28;20443;-71
2021/12/08 12:08:20;;;;;;;4.82;2.50;;;6.70;99.90;;;;;;5062695;28;20017;-72
2021/12/08 12:10:53;;;;;;;4.50;2.42;;;6.70;99.90;;;;;;5061280;28;20662;-74
2021/12/08 12:13:20;;;;;;;6.80;2.22;;;6.90;99.90;;;;;;5062235;28;20468;-72
2021/12/08 12:15:49;;;;;;;9.80;3.63;;;7.10;99.90;;;;;;5062483;28;20051;-72
2021/12/08 12:18:18;;;;;;;12.18;3.25;;;7.20;99.90;;;;;;5062541;28;20052;-72
2021/12/08 12:21:05;;;;;;;13.05;3.75;;;7.20;99.90;;;;;;5062483;28;20029;-71
2021/12/08 12:24:04;;;;;;;6.03;2.83;;;7.10;99.90;;;;;;5061914;28;20550;-74
2021/12/08 12:27:05;;;;;;;9.25;3.72;;;6.80;99.90;;;;;;5060996;28;20440;-75
2021/12/08 12:29:53;;;;;;;4.75;2.50;;;6.60;99.90;;;;;;5062220;28;20037;-73
2021/12/08 12:32:23;;;;;;;6.13;2.30;;;6.40;99.90;;;;;;5061457;28;20051;-74
2021/12/08 12:35:16;;;;;;;6.30;3.53;;;6.20;99.90;;;;;;5060264;28;20036;-72
2021/12/08 12:37:43;;;;;;;6.47;2.92;;;6.10;99.90;;;;;;5041288;28;20364;-73
2021/12/08 12:40:13;;;;;;;7.25;2.53;;;6.00;99.90;;;;;;5041327;28;20087;-73
2021/12/08 12:42:52;;;;;;;7.05;3.05;;;6.00;99.90;;;;;;5041897;28;20068;-72
2021/12/08 12:45:18;;;;;;;11.32;2.38;;;6.00;99.90;;;;;;5041933;28;20017;-73
2021/12/08 12:48:21;;;;;;;6.07;3.20;;;6.10;99.90;;;;;;5042048;28;20027;-73
2021/12/08 12:50:56;;;;;;;7.78;2.95;;;6.20;99.90;;;;;;5041093;28;20026;-74
2021/12/08 12:53:49;;;;;;;10.57;3.20;;;6.30;99.90;;;;;;5052737;28;20052;-74
2021/12/08 12:56:38;;;;;;;11.38;2.13;;;6.30;99.90;;;;;;5060465;28;20047;-74
2021/12/08 12:59:21;;;;;;;9.65;3.22;;;6.30;99.90;;;;;;5052048;28;20044;-72
2021/12/08 13:02:09;;;;;;;5.20;2.83;;;6.10;99.90;;;;;;5060021;28;20033;-74
2021/12/08 13:04:52;;;;;;;5.20;2.65;;;6.00;99.90;;;;;;5061599;28;20029;-72
2021/12/08 13:07:19;;;;;;;4.45;2.60;;;6.00;99.90;;;;;;5060248;28;20099;-74
2021/12/08 13:09:54;;;;;;;8.18;2.97;;;5.90;99.90;;;;;;5059870;28;20055;-71
2021/12/08 13:12:25;;;;;;;8.95;3.05;;;5.80;99.90;;;;;;5060085;28;20447;-74
2021/12/08 13:15:09;;;;;;;9.10;2.65;;;5.80;99.90;;;;;;5059968;28;20064;-73
2021/12/08 13:17:35;;;;;;;7.38;3.00;;;5.80;99.90;;;;;;5059549;28;20421;-72
2021/12/08 13:20:17;;;;;;;5.65;2.42;;;5.80;99.90;;;;;;5050820;28;20056;-71
2021/12/08 13:23:02;;;;;;;6.07;3.33;;;5.80;99.90;;;;;;5045606;28;20389;-74
2021/12/08 13:25:30;;;;;;;6.28;2.58;;;5.80;99.90;;;;;;5048864;28;20079;-71
2021/12/08 13:28:22;;;;;;;5.57;3.25;;;5.80;99.90;;;;;;5047274;28;20491;-74
2021/12/08 13:30:59;;;;;;;5.10;2.17;;;5.80;99.90;;;;;;5048747;28;20393;-74
2021/12/08 13:33:31;;;;;;;5.05;2.60;;;5.80;99.90;;;;;;5042022;28;20039;-73
2021/12/08 13:36:21;;;;;;;4.63;2.22;;;5.90;99.90;;;;;;5048984;28;20046;-73
2021/12/08 13:38:57;;;;;;;10.02;3.10;;;5.90;99.90;;;;;;5049588;28;20486;-73
2021/12/08 13:41:28;;;;;;;8.25;2.67;;;5.90;99.90;;;;;;5052603;28;20047;-75
2021/12/08 13:43:57;;;;;;;4.90;2.42;;;5.90;99.90;;;;;;5058344;28;20119;-72
2021/12/08 13:46:43;;;;;;;5.55;2.60;;;5.90;99.90;;;;;;5058608;28;20024;-74
2021/12/08 13:49:20;;;;;;;8.20;3.15;;;5.90;99.90;;;;;;5057709;28;20043;-73
2021/12/08 13:52:08;;;;;;;5.97;2.65;;;5.90;99.90;;;;;;5049796;28;20390;-74
2021/12/08 13:54:41;;;;;;;5.63;2.90;;;5.90;99.90;;;;;;5058204;28;20057;-71
2021/12/08 13:57:31;;;;;;;27.15;2.75;;;5.90;99.90;;;;;;5056683;28;20049;-75
2021/12/08 13:59:58;;;;;;;7.45;3.53;;;5.90;99.90;;;;;;5057981;28;20029;-73
2021/12/08 14:02:52;;;;;;;4.85;2.83;;;5.90;99.90;;;;;;5057846;28;20092;-73
2021/12/08 14:05:24;;;;;;;5.68;2.67;;;5.80;99.90;;;;;;5032029;28;20068;-74
2021/12/08 14:07:55;;;;;;;4.80;2.60;;;5.70;99.90;;;;;;5048187;28;20029;-72
2021/12/08 14:10:26;;;;;;;10.45;2.45;;;5.70;99.90;;;;;;5057272;28;20025;-73
2021/12/08 14:13:09;;;;;;;11.18;2.90;;;5.70;99.90;;;;;;5043935;28;20097;-73